sensor_id;sensor_type;location;lat;lon;timestamp;temperature;humidity
22161;DHT22;49035;48.812;11.762;2023-01-15T00:00:59;7.40;99.90
22161;DHT22;49035;48.812;11.762;2023-01-15T00:03:25;7.30;99.90
22161;DHT22;49035;48.812;11.762;2023-01-15T00:05:51;7.40;99.90
22161;DHT22;49035;48.812;11.762;2023-01-15T00:08:17;7.40;99.90
22161;DHT22;49035;48.812;11.762;2023-01-15T00:10:42;7.50;99.90
22161;DHT22;49035;48.812;11.762;2023-01-15T00:13:08;7.40;99.90
22161;DHT22;49035;48.812;11.762;2023-01-15T00:15:34;7.40;99.90
22161;DHT22;49035;48.812;11.762;2023-01-15T00:18:00;7.30;99.90
22161;DHT22;49035;48.812;11.762;2023-01-15T00:20:26;7.30;99.90
22161;DHT22;49035;48.812;11.762;2023-01-15T00:22:52;7.40;99.90
22161;DHT22;49035;48.812;11.762;2023-01-15T00:25:17;7.30;99.90
22161;DHT22;49035;48.812;11.762;2023-01-15T00:28:02;7.30;99.90
22161;DHT22;49035;48.812;11.762;2023-01-15T00:30:27;7.30;99.90
22161;DHT22;49035;48.812;11.762;2023-01-15T00:32:53;7.30;99.90
22161;DHT22;49035;48.812;11.762;2023-01-15T00:35:21;7.30;99.90
22161;DHT22;49035;48.812;11.762;2023-01-15T00:37:47;7.30;99.90
22161;DHT22;49035;48.812;11.762;2023-01-15T00:40:14;7.30;99.90
22161;DHT22;49035;48.812;11.762;2023-01-15T00:42:40;7.30;99.90
22161;DHT22;49035;48.812;11.762;2023-01-15T00:45:07;7.30;99.90
22161;DHT22;49035;48.812;11.762;2023-01-15T00:47:42;7.30;99.90
22161;DHT22;49035;48.812;11.762;2023-01-15T00:50:11;7.30;99.90
22161;DHT22;49035;48.812;11.762;2023-01-15T00:52:37;7.30;99.90
22161;DHT22;49035;48.812;11.762;2023-01-15T00:55:04;7.40;99.90
22161;DHT22;49035;48.812;11.762;2023-01-15T00:57:29;7.30;99.90
22161;DHT22;49035;48.812;11.762;2023-01-15T00:59:55;7.30;99.90
22161;DHT22;49035;48.812;11.762;2023-01-15T01:02:20;7.30;99.90
22161;DHT22;49035;48.812;11.762;2023-01-15T01:04:46;7.20;99.90
22161;DHT22;49035;48.812;11.762;2023-01-15T01:07:12;7.20;99.90
22161;DHT22;49035;48.812;11.762;2023-01-15T01:09:38;7.20;99.90
22161;DHT22;49035;48.812;11.762;2023-01-15T01:12:03;7.20;99.90
22161;DHT22;49035;48.812;11.762;2023-01-15T01:14:29;7.30;99.90
22161;DHT22;49035;48.812;11.762;2023-01-15T01:16:55;7.30;99.90
22161;DHT22;49035;48.812;11.762;2023-01-15T01:19:22;7.20;99.90
22161;DHT22;49035;48.812;11.762;2023-01-15T01:21:50;7.10;99.90
22161;DHT22;49035;48.812;11.762;2023-01-15T01:24:18;7.00;99.90
22161;DHT22;49035;48.812;11.762;2023-01-15T01:26:45;7.00;99.90
22161;DHT22;49035;48.812;11.762;2023-01-15T01:29:12;7.00;99.90
22161;DHT22;49035;48.812;11.762;2023-01-15T01:31:37;7.00;99.90
22161;DHT22;49035;48.812;11.762;2023-01-15T01:34:03;6.90;99.90
22161;DHT22;49035;48.812;11.762;2023-01-15T01:36:33;6.90;99.90
22161;DHT22;49035;48.812;11.762;2023-01-15T01:39:00;6.80;99.90
22161;DHT22;49035;48.812;11.762;2023-01-15T01:41:27;6.70;99.90
22161;DHT22;49035;48.812;11.762;2023-01-15T01:46:39;6.70;99.90
22161;DHT22;49035;48.812;11.762;2023-01-15T01:49:10;6.70;99.90
22161;DHT22;49035;48.812;11.762;2023-01-15T01:51:42;6.60;99.90
22161;DHT22;49035;48.812;11.762;2023-01-15T01:54:10;6.50;99.90
22161;DHT22;49035;48.812;11.762;2023-01-15T01:56:38;6.60;99.90
22161;DHT22;49035;48.812;11.762;2023-01-15T01:59:05;6.60;99.90
22161;DHT22;49035;48.812;11.762;2023-01-15T02:01:31;6.50;99.90
22161;DHT22;49035;48.812;11.762;2023-01-15T02:03:57;6.40;99.90
22161;DHT22;49035;48.812;11.762;2023-01-15T02:06:25;6.50;99.90
22161;DHT22;49035;48.812;11.762;2023-01-15T02:08:51;6.40;99.90
22161;DHT22;49035;48.812;11.762;2023-01-15T02:11:19;6.50;99.90
22161;DHT22;49035;48.812;11.762;2023-01-15T02:13:50;6.40;99.90
22161;DHT22;49035;48.812;11.762;2023-01-15T02:16:19;6.40;99.90
22161;DHT22;49035;48.812;11.762;2023-01-15T02:21:56;6.50;99.90
22161;DHT22;49035;48.812;11.762;2023-01-15T02:27:18;6.40;99.90
22161;DHT22;49035;48.812;11.762;2023-01-15T02:29:58;6.30;99.90
22161;DHT22;49035;48.812;11.762;2023-01-15T02:35:37;6.30;99.90
22161;DHT22;49035;48.812;11.762;2023-01-15T02:38:07;6.30;99.90
22161;DHT22;49035;48.812;11.762;2023-01-15T02:40:35;6.30;99.90
22161;DHT22;49035;48.812;11.762;2023-01-15T02:43:03;6.20;99.90
22161;DHT22;49035;48.812;11.762;2023-01-15T02:45:32;6.30;99.90
22161;DHT22;49035;48.812;11.762;2023-01-15T02:48:04;6.10;99.90
22161;DHT22;49035;48.812;11.762;2023-01-15T02:50:36;6.20;99.90
22161;DHT22;49035;48.812;11.762;2023-01-15T02:53:06;6.20;99.90
22161;DHT22;49035;48.812;11.762;2023-01-15T02:55:41;6.10;99.90
22161;DHT22;49035;48.812;11.762;2023-01-15T02:58:13;6.10;99.90
22161;DHT22;49035;48.812;11.762;2023-01-15T03:00:43;6.20;99.90
22161;DHT22;49035;48.812;11.762;2023-01-15T03:06:02;6.00;99.90
22161;DHT22;49035;48.812;11.762;2023-01-15T03:08:30;6.10;99.90
22161;DHT22;49035;48.812;11.762;2023-01-15T03:11:16;6.00;99.90
22161;DHT22;49035;48.812;11.762;2023-01-15T03:14:03;6.10;99.90
22161;DHT22;49035;48.812;11.762;2023-01-15T03:16:33;6.20;99.90
22161;DHT22;49035;48.812;11.762;2023-01-15T03:19:26;6.20;99.90
22161;DHT22;49035;48.812;11.762;2023-01-15T03:21:57;6.30;99.90
22161;DHT22;49035;48.812;11.762;2023-01-15T03:24:29;6.30;99.90
22161;DHT22;49035;48.812;11.762;2023-01-15T03:26:56;6.30;99.90
22161;DHT22;49035;48.812;11.762;2023-01-15T03:29:24;6.30;99.90
22161;DHT22;49035;48.812;11.762;2023-01-15T03:31:50;6.30;99.90
22161;DHT22;49035;48.812;11.762;2023-01-15T03:34:16;6.30;99.90
22161;DHT22;49035;48.812;11.762;2023-01-15T03:36:42;6.30;99.90
22161;DHT22;49035;48.812;11.762;2023-01-15T03:39:08;6.20;99.90
22161;DHT22;49035;48.812;11.762;2023-01-15T03:41:39;6.10;99.90
22161;DHT22;49035;48.812;11.762;2023-01-15T03:49:46;6.10;99.90
22161;DHT22;49035;48.812;11.762;2023-01-15T03:52:27;6.10;99.90
22161;DHT22;49035;48.812;11.762;2023-01-15T03:55:09;6.10;99.90
22161;DHT22;49035;48.812;11.762;2023-01-15T03:57:49;6.10;99.90
22161;DHT22;49035;48.812;11.762;2023-01-15T04:00:25;6.00;99.90
22161;DHT22;49035;48.812;11.762;2023-01-15T04:02:52;6.10;99.90
22161;DHT22;49035;48.812;11.762;2023-01-15T04:05:19;6.00;99.90
22161;DHT22;49035;48.812;11.762;2023-01-15T04:07:46;6.10;99.90
22161;DHT22;49035;48.812;11.762;2023-01-15T04:10:12;6.10;99.90
22161;DHT22;49035;48.812;11.762;2023-01-15T04:12:38;6.10;99.90
22161;DHT22;49035;48.812;11.762;2023-01-15T04:15:04;6.10;99.90
22161;DHT22;49035;48.812;11.762;2023-01-15T04:17:30;6.00;99.90
22161;DHT22;49035;48.812;11.762;2023-01-15T04:19:55;6.00;99.90
22161;DHT22;49035;48.812;11.762;2023-01-15T04:22:21;5.90;99.90
22161;DHT22;49035;48.812;11.762;2023-01-15T04:24:47;6.10;99.90
22161;DHT22;49035;48.812;11.762;2023-01-15T04:27:12;6.00;99.90
22161;DHT22;49035;48.812;11.762;2023-01-15T04:29:38;6.00;99.90
22161;DHT22;49035;48.812;11.762;2023-01-15T04:32:03;6.10;99.90
22161;DHT22;49035;48.812;11.762;2023-01-15T04:34:29;6.10;99.90
22161;DHT22;49035;48.812;11.762;2023-01-15T04:36:55;6.20;99.90
22161;DHT22;49035;48.812;11.762;2023-01-15T04:39:21;6.30;99.90
22161;DHT22;49035;48.812;11.762;2023-01-15T04:41:47;6.50;99.90
22161;DHT22;49035;48.812;11.762;2023-01-15T04:44:35;6.60;99.90
22161;DHT22;49035;48.812;11.762;2023-01-15T04:47:01;6.80;99.90
22161;DHT22;49035;48.812;11.762;2023-01-15T04:49:26;6.90;99.90
22161;DHT22;49035;48.812;11.762;2023-01-15T04:51:52;7.10;99.90
22161;DHT22;49035;48.812;11.762;2023-01-15T04:54:18;7.20;99.90
22161;DHT22;49035;48.812;11.762;2023-01-15T04:56:46;7.30;99.90
22161;DHT22;49035;48.812;11.762;2023-01-15T04:59:13;7.50;99.90
22161;DHT22;49035;48.812;11.762;2023-01-15T05:01:39;7.60;99.90
22161;DHT22;49035;48.812;11.762;2023-01-15T05:04:05;7.60;99.90
22161;DHT22;49035;48.812;11.762;2023-01-15T05:06:30;7.60;99.90
22161;DHT22;49035;48.812;11.762;2023-01-15T05:08:57;7.70;99.90
22161;DHT22;49035;48.812;11.762;2023-01-15T05:11:23;7.80;99.90
22161;DHT22;49035;48.812;11.762;2023-01-15T05:13:49;7.80;99.90
22161;DHT22;49035;48.812;11.762;2023-01-15T05:16:17;7.80;99.90
22161;DHT22;49035;48.812;11.762;2023-01-15T05:18:44;7.80;99.90
22161;DHT22;49035;48.812;11.762;2023-01-15T05:21:21;7.80;99.90
22161;DHT22;49035;48.812;11.762;2023-01-15T05:23:48;7.80;99.90
22161;DHT22;49035;48.812;11.762;2023-01-15T05:26:14;7.70;99.90
22161;DHT22;49035;48.812;11.762;2023-01-15T05:28:40;7.70;99.90
22161;DHT22;49035;48.812;11.762;2023-01-15T05:31:08;7.70;99.90
22161;DHT22;49035;48.812;11.762;2023-01-15T05:33:35;7.70;99.90
22161;DHT22;49035;48.812;11.762;2023-01-15T05:36:03;7.60;99.90
22161;DHT22;49035;48.812;11.762;2023-01-15T05:38:29;7.70;99.90
22161;DHT22;49035;48.812;11.762;2023-01-15T05:40:54;7.70;99.90
22161;DHT22;49035;48.812;11.762;2023-01-15T05:43:20;7.60;99.90
22161;DHT22;49035;48.812;11.762;2023-01-15T05:45:45;7.60;99.90
22161;DHT22;49035;48.812;11.762;2023-01-15T05:48:11;7.60;99.90
22161;DHT22;49035;48.812;11.762;2023-01-15T05:50:37;7.70;99.90
22161;DHT22;49035;48.812;11.762;2023-01-15T05:53:02;7.60;99.90
22161;DHT22;49035;48.812;11.762;2023-01-15T05:55:28;7.70;99.90
22161;DHT22;49035;48.812;11.762;2023-01-15T05:57:53;7.80;99.90
22161;DHT22;49035;48.812;11.762;2023-01-15T06:00:19;7.80;99.90
22161;DHT22;49035;48.812;11.762;2023-01-15T06:02:48;7.90;99.90
22161;DHT22;49035;48.812;11.762;2023-01-15T06:05:15;7.90;99.90
22161;DHT22;49035;48.812;11.762;2023-01-15T06:07:46;8.00;99.90
22161;DHT22;49035;48.812;11.762;2023-01-15T06:10:12;8.00;99.90
22161;DHT22;49035;48.812;11.762;2023-01-15T06:12:37;8.00;99.90
22161;DHT22;49035;48.812;11.762;2023-01-15T06:15:03;8.00;99.90
22161;DHT22;49035;48.812;11.762;2023-01-15T06:17:29;8.00;99.90
22161;DHT22;49035;48.812;11.762;2023-01-15T06:19:55;8.00;99.90
22161;DHT22;49035;48.812;11.762;2023-01-15T06:22:20;8.00;99.90
22161;DHT22;49035;48.812;11.762;2023-01-15T06:24:46;8.10;99.90
22161;DHT22;49035;48.812;11.762;2023-01-15T06:27:11;8.10;99.90
22161;DHT22;49035;48.812;11.762;2023-01-15T06:29:37;8.20;99.90
22161;DHT22;49035;48.812;11.762;2023-01-15T06:32:02;8.30;99.90
22161;DHT22;49035;48.812;11.762;2023-01-15T06:34:28;8.40;99.90
22161;DHT22;49035;48.812;11.762;2023-01-15T06:36:53;8.40;99.90
22161;DHT22;49035;48.812;11.762;2023-01-15T06:39:19;8.50;99.90
22161;DHT22;49035;48.812;11.762;2023-01-15T06:41:45;8.70;99.90
22161;DHT22;49035;48.812;11.762;2023-01-15T06:44:29;8.80;99.90
22161;DHT22;49035;48.812;11.762;2023-01-15T06:47:15;8.90;99.90
22161;DHT22;49035;48.812;11.762;2023-01-15T06:49:55;8.90;99.90
22161;DHT22;49035;48.812;11.762;2023-01-15T06:52:23;8.90;99.90
22161;DHT22;49035;48.812;11.762;2023-01-15T06:54:49;9.00;99.90
22161;DHT22;49035;48.812;11.762;2023-01-15T06:57:15;9.00;99.90
22161;DHT22;49035;48.812;11.762;2023-01-15T06:59:43;9.00;99.90
22161;DHT22;49035;48.812;11.762;2023-01-15T07:02:10;9.00;99.90
22161;DHT22;49035;48.812;11.762;2023-01-15T07:04:36;9.00;99.90
22161;DHT22;49035;48.812;11.762;2023-01-15T07:07:01;9.10;99.90
22161;DHT22;49035;48.812;11.762;2023-01-15T07:09:27;9.10;99.90
22161;DHT22;49035;48.812;11.762;2023-01-15T07:11:53;9.10;99.90
22161;DHT22;49035;48.812;11.762;2023-01-15T07:14:23;9.20;99.90
22161;DHT22;49035;48.812;11.762;2023-01-15T07:16:50;9.30;99.90
22161;DHT22;49035;48.812;11.762;2023-01-15T07:19:16;9.50;99.90
22161;DHT22;49035;48.812;11.762;2023-01-15T07:21:43;9.60;99.90
22161;DHT22;49035;48.812;11.762;2023-01-15T07:24:09;9.70;99.90
22161;DHT22;49035;48.812;11.762;2023-01-15T07:26:35;9.90;99.90
22161;DHT22;49035;48.812;11.762;2023-01-15T07:29:01;10.00;99.90
22161;DHT22;49035;48.812;11.762;2023-01-15T07:31:26;10.10;99.90
22161;DHT22;49035;48.812;11.762;2023-01-15T07:33:54;10.20;99.90
22161;DHT22;49035;48.812;11.762;2023-01-15T07:36:20;10.20;99.90
22161;DHT22;49035;48.812;11.762;2023-01-15T07:38:45;10.30;99.90
22161;DHT22;49035;48.812;11.762;2023-01-15T07:41:11;10.30;99.90
22161;DHT22;49035;48.812;11.762;2023-01-15T07:43:55;10.20;99.90
22161;DHT22;49035;48.812;11.762;2023-01-15T07:46:39;10.20;99.90
22161;DHT22;49035;48.812;11.762;2023-01-15T07:49:23;10.20;99.90
22161;DHT22;49035;48.812;11.762;2023-01-15T07:52:07;10.20;99.90
22161;DHT22;49035;48.812;11.762;2023-01-15T07:54:33;10.30;99.90
22161;DHT22;49035;48.812;11.762;2023-01-15T07:56:58;10.40;99.90
22161;DHT22;49035;48.812;11.762;2023-01-15T07:59:24;10.50;99.90
22161;DHT22;49035;48.812;11.762;2023-01-15T08:01:50;10.50;99.90
22161;DHT22;49035;48.812;11.762;2023-01-15T08:04:15;10.50;99.90
22161;DHT22;49035;48.812;11.762;2023-01-15T08:06:41;10.60;99.90
22161;DHT22;49035;48.812;11.762;2023-01-15T08:09:07;10.60;99.90
22161;DHT22;49035;48.812;11.762;2023-01-15T08:11:32;10.60;99.90
22161;DHT22;49035;48.812;11.762;2023-01-15T08:14:17;10.60;99.90
22161;DHT22;49035;48.812;11.762;2023-01-15T08:17:01;10.70;99.90
22161;DHT22;49035;48.812;11.762;2023-01-15T08:19:27;10.80;99.90
22161;DHT22;49035;48.812;11.762;2023-01-15T08:21:57;10.90;99.90
22161;DHT22;49035;48.812;11.762;2023-01-15T08:24:24;10.90;99.90
22161;DHT22;49035;48.812;11.762;2023-01-15T08:26:51;10.90;99.90
22161;DHT22;49035;48.812;11.762;2023-01-15T08:29:17;10.90;99.90
22161;DHT22;49035;48.812;11.762;2023-01-15T08:31:43;11.00;99.90
22161;DHT22;49035;48.812;11.762;2023-01-15T08:34:08;11.00;99.90
22161;DHT22;49035;48.812;11.762;2023-01-15T08:36:35;11.10;99.90
22161;DHT22;49035;48.812;11.762;2023-01-15T08:39:00;11.10;99.90
22161;DHT22;49035;48.812;11.762;2023-01-15T08:41:26;11.20;99.90
22161;DHT22;49035;48.812;11.762;2023-01-15T08:43:52;11.30;99.90
22161;DHT22;49035;48.812;11.762;2023-01-15T08:46:17;11.30;99.90
22161;DHT22;49035;48.812;11.762;2023-01-15T08:48:43;11.40;99.90
22161;DHT22;49035;48.812;11.762;2023-01-15T08:51:10;11.50;99.90
22161;DHT22;49035;48.812;11.762;2023-01-15T08:53:36;11.50;99.90
22161;DHT22;49035;48.812;11.762;2023-01-15T08:56:02;11.50;99.90
22161;DHT22;49035;48.812;11.762;2023-01-15T08:58:30;11.50;99.90
22161;DHT22;49035;48.812;11.762;2023-01-15T09:00:55;11.50;99.90
22161;DHT22;49035;48.812;11.762;2023-01-15T09:03:21;11.40;99.90
22161;DHT22;49035;48.812;11.762;2023-01-15T09:05:47;11.40;99.90
22161;DHT22;49035;48.812;11.762;2023-01-15T09:08:12;11.40;99.90
22161;DHT22;49035;48.812;11.762;2023-01-15T09:10:38;11.30;99.90
22161;DHT22;49035;48.812;11.762;2023-01-15T09:13:03;11.30;99.90
22161;DHT22;49035;48.812;11.762;2023-01-15T09:15:31;11.10;99.90
22161;DHT22;49035;48.812;11.762;2023-01-15T09:17:57;10.90;99.90
22161;DHT22;49035;48.812;11.762;2023-01-15T09:20:23;10.50;99.90
22161;DHT22;49035;48.812;11.762;2023-01-15T09:22:49;10.10;99.90
22161;DHT22;49035;48.812;11.762;2023-01-15T09:25:15;9.80;99.90
22161;DHT22;49035;48.812;11.762;2023-01-15T09:27:42;9.70;99.90
22161;DHT22;49035;48.812;11.762;2023-01-15T09:30:16;9.50;99.90
22161;DHT22;49035;48.812;11.762;2023-01-15T09:32:42;9.30;99.90
22161;DHT22;49035;48.812;11.762;2023-01-15T09:35:08;8.90;99.90
22161;DHT22;49035;48.812;11.762;2023-01-15T09:37:33;8.60;99.90
22161;DHT22;49035;48.812;11.762;2023-01-15T09:39:59;8.30;99.90
22161;DHT22;49035;48.812;11.762;2023-01-15T09:42:45;8.10;99.90
22161;DHT22;49035;48.812;11.762;2023-01-15T09:45:26;8.00;99.90
22161;DHT22;49035;48.812;11.762;2023-01-15T09:50:43;7.70;99.90
22161;DHT22;49035;48.812;11.762;2023-01-15T09:56:24;7.40;99.90
22161;DHT22;49035;48.812;11.762;2023-01-15T09:58:52;7.40;99.90
22161;DHT22;49035;48.812;11.762;2023-01-15T10:01:25;7.30;99.90
22161;DHT22;49035;48.812;11.762;2023-01-15T10:04:05;7.30;99.90
22161;DHT22;49035;48.812;11.762;2023-01-15T10:06:59;7.20;99.90
22161;DHT22;49035;48.812;11.762;2023-01-15T10:09:34;7.20;99.90
22161;DHT22;49035;48.812;11.762;2023-01-15T10:12:16;7.20;99.90
22161;DHT22;49035;48.812;11.762;2023-01-15T10:17:42;7.20;99.90
22161;DHT22;49035;48.812;11.762;2023-01-15T10:20:38;7.20;99.90
22161;DHT22;49035;48.812;11.762;2023-01-15T10:26:07;7.20;99.90
22161;DHT22;49035;48.812;11.762;2023-01-15T10:28:58;7.20;99.90
22161;DHT22;49035;48.812;11.762;2023-01-15T10:43:18;6.70;99.90
22161;DHT22;49035;48.812;11.762;2023-01-15T10:48:24;6.50;99.90
22161;DHT22;49035;48.812;11.762;2023-01-15T10:50:51;6.50;99.90
22161;DHT22;49035;48.812;11.762;2023-01-15T11:01:33;6.30;99.90
22161;DHT22;49035;48.812;11.762;2023-01-15T11:03:59;6.30;99.90
22161;DHT22;49035;48.812;11.762;2023-01-15T11:06:28;6.20;99.90
22161;DHT22;49035;48.812;11.762;2023-01-15T11:08:55;6.20;99.90
22161;DHT22;49035;48.812;11.762;2023-01-15T11:14:39;6.20;99.90
22161;DHT22;49035;48.812;11.762;2023-01-15T11:17:41;6.10;99.90
22161;DHT22;49035;48.812;11.762;2023-01-15T11:20:42;6.20;99.90
22161;DHT22;49035;48.812;11.762;2023-01-15T11:23:15;6.20;99.90
22161;DHT22;49035;48.812;11.762;2023-01-15T11:28:13;6.00;99.90
22161;DHT22;49035;48.812;11.762;2023-01-15T11:30:40;5.90;99.90
22161;DHT22;49035;48.812;11.762;2023-01-15T11:33:25;5.90;99.90
22161;DHT22;49035;48.812;11.762;2023-01-15T11:35:57;5.90;99.90
22161;DHT22;49035;48.812;11.762;2023-01-15T11:38:28;6.00;99.90
22161;DHT22;49035;48.812;11.762;2023-01-15T11:40:59;6.10;99.90
22161;DHT22;49035;48.812;11.762;2023-01-15T11:43:29;6.20;99.90
22161;DHT22;49035;48.812;11.762;2023-01-15T11:46:31;6.20;99.90
22161;DHT22;49035;48.812;11.762;2023-01-15T11:49:18;6.20;99.90
22161;DHT22;49035;48.812;11.762;2023-01-15T11:52:07;6.20;99.90
22161;DHT22;49035;48.812;11.762;2023-01-15T11:54:36;6.30;99.90
22161;DHT22;49035;48.812;11.762;2023-01-15T11:57:03;6.30;99.90
22161;DHT22;49035;48.812;11.762;2023-01-15T11:59:30;6.30;99.90
22161;DHT22;49035;48.812;11.762;2023-01-15T12:02:00;6.40;99.90
22161;DHT22;49035;48.812;11.762;2023-01-15T12:06:54;6.50;99.90
22161;DHT22;49035;48.812;11.762;2023-01-15T12:12:20;6.50;99.90
22161;DHT22;49035;48.812;11.762;2023-01-15T12:15:00;6.50;99.90
22161;DHT22;49035;48.812;11.762;2023-01-15T12:20:26;6.50;99.90
22161;DHT22;49035;48.812;11.762;2023-01-15T12:25:58;6.70;99.90
22161;DHT22;49035;48.812;11.762;2023-01-15T12:28:34;6.70;99.90
22161;DHT22;49035;48.812;11.762;2023-01-15T12:31:12;6.70;99.90
22161;DHT22;49035;48.812;11.762;2023-01-15T12:39:32;6.70;99.90
22161;DHT22;49035;48.812;11.762;2023-01-15T12:42:12;6.60;99.90
22161;DHT22;49035;48.812;11.762;2023-01-15T12:45:02;6.70;99.90
22161;DHT22;49035;48.812;11.762;2023-01-15T12:47:30;6.60;99.90
22161;DHT22;49035;48.812;11.762;2023-01-15T12:50:26;6.60;99.90
22161;DHT22;49035;48.812;11.762;2023-01-15T12:53:22;6.60;99.90
22161;DHT22;49035;48.812;11.762;2023-01-15T12:55:53;6.50;99.90
22161;DHT22;49035;48.812;11.762;2023-01-15T12:58:49;6.50;99.90
22161;DHT22;49035;48.812;11.762;2023-01-15T13:06:31;6.00;99.90
22161;DHT22;49035;48.812;11.762;2023-01-15T13:09:09;5.90;99.90
22161;DHT22;49035;48.812;11.762;2023-01-15T13:11:38;5.80;99.90
22161;DHT22;49035;48.812;11.762;2023-01-15T13:14:18;5.80;99.90
22161;DHT22;49035;48.812;11.762;2023-01-15T13:19:56;5.70;99.90
22161;DHT22;49035;48.812;11.762;2023-01-15T13:22:25;5.70;99.90
22161;DHT22;49035;48.812;11.762;2023-01-15T13:25:18;5.70;99.90
22161;DHT22;49035;48.812;11.762;2023-01-15T13:28:30;5.70;99.90
22161;DHT22;49035;48.812;11.762;2023-01-15T13:33:45;5.80;99.90
22161;DHT22;49035;48.812;11.762;2023-01-15T13:36:24;5.80;99.90
22161;DHT22;49035;48.812;11.762;2023-01-15T13:38:59;5.80;99.90
22161;DHT22;49035;48.812;11.762;2023-01-15T13:41:28;5.90;99.90
22161;DHT22;49035;48.812;11.762;2023-01-15T13:44:24;5.90;99.90
22161;DHT22;49035;48.812;11.762;2023-01-15T13:47:02;5.90;99.90
22161;DHT22;49035;48.812;11.762;2023-01-15T13:49:33;5.90;99.90
22161;DHT22;49035;48.812;11.762;2023-01-15T13:52:01;5.90;99.90
22161;DHT22;49035;48.812;11.762;2023-01-15T13:54:30;5.80;99.90
22161;DHT22;49035;48.812;11.762;2023-01-15T13:57:52;5.80;99.90
22161;DHT22;49035;48.812;11.762;2023-01-15T13:59:52;5.70;99.90
22161;DHT22;49035;48.812;11.762;2023-01-15T14:02:25;5.70;99.90
22161;DHT22;49035;48.812;11.762;2023-01-15T14:04:51;5.70;99.90
22161;DHT22;49035;48.812;11.762;2023-01-15T14:07:38;5.70;99.90
22161;DHT22;49035;48.812;11.762;2023-01-15T14:10:22;5.60;99.90
22161;DHT22;49035;48.812;11.762;2023-01-15T14:21:38;5.30;99.90
22161;DHT22;49035;48.812;11.762;2023-01-15T14:24:37;5.20;99.90
22161;DHT22;49035;48.812;11.762;2023-01-15T14:27:32;5.20;99.90
22161;DHT22;49035;48.812;11.762;2023-01-15T14:35:23;5.20;99.90
22161;DHT22;49035;48.812;11.762;2023-01-15T14:38:12;5.20;99.90
22161;DHT22;49035;48.812;11.762;2023-01-15T14:40:55;5.10;99.90
22161;DHT22;49035;48.812;11.762;2023-01-15T14:43:25;5.10;99.90
22161;DHT22;49035;48.812;11.762;2023-01-15T14:45:52;5.10;99.90
22161;DHT22;49035;48.812;11.762;2023-01-15T14:48:36;5.00;99.90
22161;DHT22;49035;48.812;11.762;2023-01-15T14:51:12;4.90;99.90
22161;DHT22;49035;48.812;11.762;2023-01-15T14:53:42;4.80;99.90
22161;DHT22;49035;48.812;11.762;2023-01-15T14:56:19;4.70;99.90
22161;DHT22;49035;48.812;11.762;2023-01-15T14:59:59;4.70;99.90
22161;DHT22;49035;48.812;11.762;2023-01-15T15:02:01;4.60;99.90
22161;DHT22;49035;48.812;11.762;2023-01-15T15:04:34;4.70;99.90
22161;DHT22;49035;48.812;11.762;2023-01-15T15:07:10;4.60;99.90
22161;DHT22;49035;48.812;11.762;2023-01-15T15:09:45;4.60;99.90
22161;DHT22;49035;48.812;11.762;2023-01-15T15:12:34;4.60;99.90
22161;DHT22;49035;48.812;11.762;2023-01-15T15:18:14;4.50;99.90
22161;DHT22;49035;48.812;11.762;2023-01-15T15:21:03;4.50;99.90
22161;DHT22;49035;48.812;11.762;2023-01-15T15:28:59;4.30;99.90
22161;DHT22;49035;48.812;11.762;2023-01-15T15:31:25;4.20;99.90
22161;DHT22;49035;48.812;11.762;2023-01-15T15:33:53;4.10;99.90
22161;DHT22;49035;48.812;11.762;2023-01-15T15:36:20;4.00;99.90
22161;DHT22;49035;48.812;11.762;2023-01-15T15:39:15;4.00;99.90
22161;DHT22;49035;48.812;11.762;2023-01-15T15:41:43;3.80;99.90
22161;DHT22;49035;48.812;11.762;2023-01-15T15:44:50;3.70;99.90
22161;DHT22;49035;48.812;11.762;2023-01-15T15:47:42;3.70;99.90
22161;DHT22;49035;48.812;11.762;2023-01-15T15:50:40;3.60;99.90
22161;DHT22;49035;48.812;11.762;2023-01-15T15:53:15;3.50;99.90
22161;DHT22;49035;48.812;11.762;2023-01-15T15:55:43;3.50;99.90
22161;DHT22;49035;48.812;11.762;2023-01-15T15:58:41;3.40;99.90
22161;DHT22;49035;48.812;11.762;2023-01-15T16:01:12;3.40;99.90
22161;DHT22;49035;48.812;11.762;2023-01-15T16:03:45;3.30;99.90
22161;DHT22;49035;48.812;11.762;2023-01-15T16:06:20;3.30;99.90
22161;DHT22;49035;48.812;11.762;2023-01-15T16:08:56;3.30;99.90
22161;DHT22;49035;48.812;11.762;2023-01-15T16:11:32;3.30;99.90
22161;DHT22;49035;48.812;11.762;2023-01-15T16:14:02;3.20;99.90
22161;DHT22;49035;48.812;11.762;2023-01-15T16:16:28;3.20;99.90
22161;DHT22;49035;48.812;11.762;2023-01-15T16:18:56;3.30;99.90
22161;DHT22;49035;48.812;11.762;2023-01-15T16:21:34;3.20;99.90
22161;DHT22;49035;48.812;11.762;2023-01-15T16:24:07;3.20;99.90
22161;DHT22;49035;48.812;11.762;2023-01-15T16:26:51;3.10;99.90
22161;DHT22;49035;48.812;11.762;2023-01-15T16:29:27;3.20;99.90
22161;DHT22;49035;48.812;11.762;2023-01-15T16:31:54;3.10;99.90
22161;DHT22;49035;48.812;11.762;2023-01-15T16:34:32;3.10;99.90
22161;DHT22;49035;48.812;11.762;2023-01-15T16:36:59;3.10;99.90
22161;DHT22;49035;48.812;11.762;2023-01-15T16:39:29;3.10;99.90
22161;DHT22;49035;48.812;11.762;2023-01-15T16:41:57;3.10;99.90
22161;DHT22;49035;48.812;11.762;2023-01-15T16:46:57;3.10;99.90
22161;DHT22;49035;48.812;11.762;2023-01-15T16:49:26;3.10;99.90
22161;DHT22;49035;48.812;11.762;2023-01-15T16:51:53;3.20;99.90
22161;DHT22;49035;48.812;11.762;2023-01-15T16:54:41;3.20;99.90
22161;DHT22;49035;48.812;11.762;2023-01-15T16:59:58;3.00;99.90
22161;DHT22;49035;48.812;11.762;2023-01-15T17:02:24;3.00;99.90
22161;DHT22;49035;48.812;11.762;2023-01-15T17:04:54;2.90;99.90
22161;DHT22;49035;48.812;11.762;2023-01-15T17:07:38;3.00;99.90
22161;DHT22;49035;48.812;11.762;2023-01-15T17:10:05;3.00;99.90
22161;DHT22;49035;48.812;11.762;2023-01-15T17:12:42;3.00;99.90
22161;DHT22;49035;48.812;11.762;2023-01-15T17:17:40;3.00;99.90
22161;DHT22;49035;48.812;11.762;2023-01-15T17:20:11;3.00;99.90
22161;DHT22;49035;48.812;11.762;2023-01-15T17:22:40;2.90;99.90
22161;DHT22;49035;48.812;11.762;2023-01-15T17:25:24;2.90;99.90
22161;DHT22;49035;48.812;11.762;2023-01-15T17:27:51;2.90;99.90
22161;DHT22;49035;48.812;11.762;2023-01-15T17:30:18;2.70;99.90
22161;DHT22;49035;48.812;11.762;2023-01-15T17:32:44;2.60;99.90
22161;DHT22;49035;48.812;11.762;2023-01-15T17:35:30;2.60;99.90
22161;DHT22;49035;48.812;11.762;2023-01-15T17:37:56;2.40;99.90
22161;DHT22;49035;48.812;11.762;2023-01-15T17:40:22;2.30;99.90
22161;DHT22;49035;48.812;11.762;2023-01-15T17:42:48;2.40;99.90
22161;DHT22;49035;48.812;11.762;2023-01-15T17:45:28;2.50;99.90
22161;DHT22;49035;48.812;11.762;2023-01-15T17:47:54;2.40;99.90
22161;DHT22;49035;48.812;11.762;2023-01-15T17:50:20;2.40;99.90
22161;DHT22;49035;48.812;11.762;2023-01-15T17:52:46;2.40;99.90
22161;DHT22;49035;48.812;11.762;2023-01-15T17:55:14;2.60;99.90